Time;durP1;ratioP1;P1;durP2;ratioP2;P2;SDS_P1;SDS_P2;PMS_P1;PMS_P2;Temp;Humidity;BMP_temperature;BMP_pressure;BME280_temperature;BME280_humidity;BME280_pressure;Samples;Min_cycle;Max_cycle;Signal;HPM_P1;HPM_P2
2021/06/27 00:01:20;;;;;;;66.07;36.88;;;;;;;;;;5053926;28;20013;-83
2021/06/27 00:03:46;;;;;;;59.85;35.80;;;;;;;;;;5054156;28;20031;-83
2021/06/27 00:06:11;;;;;;;64.05;35.17;;;;;;;;;;5053739;28;20021;-83
2021/06/27 00:08:37;;;;;;;61.83;36.28;;;;;;;;;;5054000;28;20104;-84
2021/06/27 00:11:03;;;;;;;59.10;36.35;;;;;;;;;;5053311;28;20058;-83
2021/06/27 00:13:29;;;;;;;64.68;36.00;;;;;;;;;;5054076;28;20103;-83
2021/06/27 00:15:54;;;;;;;58.97;36.08;;;;;;;;;;5055338;28;20021;-83
2021/06/27 00:18:21;;;;;;;65.38;36.83;;;;;;;;;;5053746;28;20024;-83
2021/06/27 00:20:47;;;;;;;58.90;34.83;;;;;;;;;;5054044;28;20047;-83
2021/06/27 00:23:14;;;;;;;61.65;36.03;;;;;;;;;;5053880;28;20020;-82
2021/06/27 00:25:39;;;;;;;58.00;34.10;;;;;;;;;;5053811;28;20020;-83
2021/06/27 00:28:05;;;;;;;58.17;34.65;;;;;;;;;;5087344;28;20551;-83
2021/06/27 00:30:31;;;;;;;61.80;36.00;;;;;;;;;;5052246;28;20044;-84
2021/06/27 00:32:56;;;;;;;55.08;30.35;;;;;;;;;;5054126;28;20021;-84
2021/06/27 00:35:21;;;;;;;65.22;36.75;;;;;;;;;;5053726;28;20028;-83
2021/06/27 00:37:47;;;;;;;56.92;34.67;;;;;;;;;;5055373;28;20070;-83
2021/06/27 00:40:14;;;;;;;57.70;34.25;;;;;;;;;;5053806;28;20123;-83
2021/06/27 00:42:39;;;;;;;62.55;33.45;;;;;;;;;;5054143;28;20021;-83
2021/06/27 00:45:07;;;;;;;60.72;34.95;;;;;;;;;;5053787;28;20040;-83
2021/06/27 00:47:34;;;;;;;56.03;33.22;;;;;;;;;;5053945;28;20050;-83
2021/06/27 00:49:59;;;;;;;57.08;34.95;;;;;;;;;;5053944;28;20082;-83
2021/06/27 00:52:25;;;;;;;55.55;34.22;;;;;;;;;;5053167;28;20049;-83
2021/06/27 00:54:50;;;;;;;55.45;33.85;;;;;;;;;;5053368;28;20021;-83
2021/06/27 00:57:16;;;;;;;57.80;34.63;;;;;;;;;;5068378;28;20013;-83
2021/06/27 00:59:41;;;;;;;64.53;34.97;;;;;;;;;;5073549;28;20456;-83
2021/06/27 01:02:06;;;;;;;59.88;35.38;;;;;;;;;;5065895;28;20021;-84
2021/06/27 01:04:31;;;;;;;57.75;34.95;;;;;;;;;;5060416;28;20074;-83
2021/06/27 01:06:57;;;;;;;55.90;34.28;;;;;;;;;;5073563;28;20024;-84
2021/06/27 01:09:22;;;;;;;52.75;33.67;;;;;;;;;;5067023;28;20609;-83
2021/06/27 01:11:47;;;;;;;56.10;34.25;;;;;;;;;;5073358;28;20013;-84
2021/06/27 01:14:13;;;;;;;55.25;34.15;;;;;;;;;;5073168;28;20036;-83
2021/06/27 01:16:40;;;;;;;57.15;33.17;;;;;;;;;;5070940;28;20111;-84
2021/06/27 01:19:06;;;;;;;56.78;32.97;;;;;;;;;;5070138;28;20029;-83
2021/06/27 01:21:33;;;;;;;55.50;34.10;;;;;;;;;;5073363;28;20106;-84
2021/06/27 01:23:58;;;;;;;56.88;34.40;;;;;;;;;;5074604;28;20120;-84
2021/06/27 01:26:23;;;;;;;56.50;33.20;;;;;;;;;;5073188;28;20103;-84
2021/06/27 01:28:49;;;;;;;57.95;32.60;;;;;;;;;;5068837;28;20415;-84
2021/06/27 01:31:14;;;;;;;55.10;33.53;;;;;;;;;;5069227;28;20087;-83
2021/06/27 01:33:40;;;;;;;56.45;32.67;;;;;;;;;;5073282;28;20027;-83
2021/06/27 01:36:05;;;;;;;55.42;33.03;;;;;;;;;;5073175;28;20024;-84
2021/06/27 01:38:31;;;;;;;56.85;33.53;;;;;;;;;;5072750;28;20471;-83
2021/06/27 01:40:57;;;;;;;54.33;33.20;;;;;;;;;;5063010;28;20029;-83
2021/06/27 01:43:23;;;;;;;53.85;33.25;;;;;;;;;;5059569;28;20016;-83
2021/06/27 01:45:50;;;;;;;60.45;35.42;;;;;;;;;;5062890;28;20017;-83
2021/06/27 01:48:15;;;;;;;55.08;33.08;;;;;;;;;;5072709;28;20498;-83
2021/06/27 01:50:42;;;;;;;63.00;35.22;;;;;;;;;;5074126;28;20100;-83
2021/06/27 01:53:08;;;;;;;60.00;36.17;;;;;;;;;;5072811;28;20024;-83
2021/06/27 01:55:34;;;;;;;63.05;36.20;;;;;;;;;;5072861;28;20024;-83
2021/06/27 01:57:59;;;;;;;57.40;34.75;;;;;;;;;;5074071;28;20035;-83
2021/06/27 02:00:26;;;;;;;58.58;35.55;;;;;;;;;;5058427;28;20471;-83
2021/06/27 02:02:51;;;;;;;57.60;34.22;;;;;;;;;;5074036;28;20367;-83
2021/06/27 02:05:17;;;;;;;54.67;33.08;;;;;;;;;;5056489;28;20028;-83
2021/06/27 02:07:42;;;;;;;59.90;34.58;;;;;;;;;;5072404;28;20385;-83
2021/06/27 02:10:12;;;;;;;57.20;33.08;;;;;;;;;;5072440;28;20021;-84
2021/06/27 02:12:37;;;;;;;59.15;34.40;;;;;;;;;;5071958;28;20016;-84
2021/06/27 02:15:03;;;;;;;55.63;33.35;;;;;;;;;;5072358;28;20039;-83
2021/06/27 02:17:28;;;;;;;53.03;33.30;;;;;;;;;;5060920;28;20013;-83
2021/06/27 02:19:56;;;;;;;54.42;33.47;;;;;;;;;;5061432;28;20021;-83
2021/06/27 02:22:21;;;;;;;60.55;35.67;;;;;;;;;;5072019;28;20024;-83
2021/06/27 02:24:47;;;;;;;55.47;33.55;;;;;;;;;;5072260;28;20023;-83
2021/06/27 02:27:12;;;;;;;58.10;35.20;;;;;;;;;;5072060;28;20025;-83
2021/06/27 02:29:38;;;;;;;53.42;34.28;;;;;;;;;;5072172;28;20020;-83
2021/06/27 02:32:05;;;;;;;54.05;33.67;;;;;;;;;;5072280;28;20021;-83
2021/06/27 02:34:30;;;;;;;54.58;35.13;;;;;;;;;;5072018;28;20020;-83
2021/06/27 02:36:56;;;;;;;55.22;33.38;;;;;;;;;;5072089;28;20048;-83
2021/06/27 02:39:22;;;;;;;55.00;32.38;;;;;;;;;;5073090;28;20376;-83
2021/06/27 02:41:47;;;;;;;57.05;34.53;;;;;;;;;;5070169;28;20081;-83
2021/06/27 02:44:12;;;;;;;52.53;32.15;;;;;;;;;;5071795;28;20116;-83
2021/06/27 02:46:38;;;;;;;53.92;34.42;;;;;;;;;;5073301;28;20356;-83
2021/06/27 02:49:03;;;;;;;61.47;33.83;;;;;;;;;;5072018;28;20494;-83
2021/06/27 02:51:28;;;;;;;57.80;34.40;;;;;;;;;;5071639;28;20120;-83
2021/06/27 02:53:54;;;;;;;56.78;34.53;;;;;;;;;;5071255;28;20017;-84
2021/06/27 02:56:19;;;;;;;56.47;33.25;;;;;;;;;;5057174;28;20031;-83
2021/06/27 02:58:46;;;;;;;53.22;32.97;;;;;;;;;;5071866;28;20020;-84
2021/06/27 03:01:12;;;;;;;52.35;33.03;;;;;;;;;;5071769;28;20178;-83
2021/06/27 03:03:39;;;;;;;55.92;33.75;;;;;;;;;;5071462;28;20103;-83
2021/06/27 03:06:04;;;;;;;53.00;33.53;;;;;;;;;;5063796;28;20480;-83
2021/06/27 03:08:30;;;;;;;51.90;33.95;;;;;;;;;;5052554;28;20046;-84
2021/06/27 03:10:56;;;;;;;53.95;33.50;;;;;;;;;;5070823;28;20361;-83
2021/06/27 03:13:21;;;;;;;57.25;34.45;;;;;;;;;;5071449;28;20029;-83
2021/06/27 03:15:46;;;;;;;56.60;32.60;;;;;;;;;;5071423;28;20032;-84
2021/06/27 03:18:11;;;;;;;69.22;36.08;;;;;;;;;;5071564;28;20024;-84
2021/06/27 03:20:36;;;;;;;56.03;34.28;;;;;;;;;;5071522;28;20043;-84
2021/06/27 03:23:02;;;;;;;58.05;33.70;;;;;;;;;;5071430;28;20016;-84
2021/06/27 03:25:30;;;;;;;46.63;29.80;;;;;;;;;;5071408;28;20036;-84
2021/06/27 03:27:55;;;;;;;59.28;33.70;;;;;;;;;;5072557;28;20008;-84
2021/06/27 03:30:21;;;;;;;52.80;33.63;;;;;;;;;;5064817;28;20024;-84
2021/06/27 03:32:46;;;;;;;53.60;33.90;;;;;;;;;;5068435;28;20013;-84
2021/06/27 03:35:11;;;;;;;53.97;34.10;;;;;;;;;;5071370;28;20013;-84
2021/06/27 03:37:50;;;;;;;55.47;34.45;;;;;;;;;;5071233;28;20090;-84
2021/06/27 03:40:16;;;;;;;53.63;32.13;;;;;;;;;;5071518;28;20017;-83
2021/06/27 03:42:41;;;;;;;51.15;32.40;;;;;;;;;;5071114;28;20530;-83
2021/06/27 03:45:07;;;;;;;49.75;33.08;;;;;;;;;;5071092;28;20025;-83
2021/06/27 03:47:32;;;;;;;49.42;33.35;;;;;;;;;;5071341;28;20021;-83
2021/06/27 03:49:57;;;;;;;56.13;32.97;;;;;;;;;;5071084;28;20463;-83
2021/06/27 03:52:22;;;;;;;52.42;33.05;;;;;;;;;;5064079;28;20029;-83
2021/06/27 03:54:47;;;;;;;52.83;33.72;;;;;;;;;;5071091;28;20020;-84
2021/06/27 03:57:13;;;;;;;54.17;33.70;;;;;;;;;;5071109;28;20460;-83
2021/06/27 03:59:38;;;;;;;55.60;33.90;;;;;;;;;;5066359;28;20055;-83
2021/06/27 04:02:03;;;;;;;53.88;35.03;;;;;;;;;;5071070;28;20016;-83
2021/06/27 04:04:28;;;;;;;60.63;34.08;;;;;;;;;;5072990;28;20074;-83
2021/06/27 04:06:54;;;;;;;51.95;33.13;;;;;;;;;;5075863;28;20364;-83
2021/06/27 04:09:19;;;;;;;52.53;33.75;;;;;;;;;;5074715;28;20017;-83
2021/06/27 04:11:44;;;;;;;50.47;32.58;;;;;;;;;;5074438;28;20025;-83
2021/06/27 04:14:09;;;;;;;54.78;33.10;;;;;;;;;;5074593;28;20459;-83
2021/06/27 04:16:35;;;;;;;52.60;33.67;;;;;;;;;;5067829;28;20472;-83
2021/06/27 04:19:00;;;;;;;52.38;33.30;;;;;;;;;;5074395;28;20479;-83
2021/06/27 04:21:25;;;;;;;53.53;33.45;;;;;;;;;;5074356;28;20048;-83
2021/06/27 04:23:51;;;;;;;52.83;33.90;;;;;;;;;;5074332;28;20037;-83
2021/06/27 04:26:16;;;;;;;50.42;31.63;;;;;;;;;;5074241;28;20031;-83
2021/06/27 04:28:42;;;;;;;55.00;32.47;;;;;;;;;;5074465;28;20024;-84
2021/06/27 04:31:07;;;;;;;46.85;28.65;;;;;;;;;;5074121;28;20025;-83
2021/06/27 04:33:32;;;;;;;46.90;29.55;;;;;;;;;;5074280;28;20074;-83
2021/06/27 04:35:57;;;;;;;50.55;31.90;;;;;;;;;;5073925;28;20064;-83
2021/06/27 04:38:24;;;;;;;53.85;31.45;;;;;;;;;;5074132;28;20102;-83
2021/06/27 04:40:50;;;;;;;48.38;31.70;;;;;;;;;;5058537;28;20048;-83
2021/06/27 04:43:15;;;;;;;50.40;32.08;;;;;;;;;;5073021;28;20059;-83
2021/06/27 04:45:41;;;;;;;51.22;33.40;;;;;;;;;;5073019;28;20024;-83
2021/06/27 04:48:07;;;;;;;53.28;32.75;;;;;;;;;;5065274;28;20478;-83
2021/06/27 04:50:32;;;;;;;51.05;33.13;;;;;;;;;;5072761;28;20020;-83
2021/06/27 04:52:58;;;;;;;47.08;31.55;;;;;;;;;;5072878;28;20384;-84
2021/06/27 04:55:23;;;;;;;48.38;32.00;;;;;;;;;;5072719;28;20071;-83
2021/06/27 04:57:48;;;;;;;54.13;32.50;;;;;;;;;;5073007;28;20025;-83
2021/06/27 05:00:13;;;;;;;56.65;33.28;;;;;;;;;;5072454;28;20107;-83
2021/06/27 05:02:39;;;;;;;50.17;32.80;;;;;;;;;;5074446;28;20115;-83
2021/06/27 05:05:04;;;;;;;48.33;31.75;;;;;;;;;;5062012;28;20116;-84
2021/06/27 05:07:30;;;;;;;52.47;31.35;;;;;;;;;;5072747;28;20054;-83
2021/06/27 05:09:56;;;;;;;49.47;29.27;;;;;;;;;;5073753;28;20602;-83
2021/06/27 05:12:22;;;;;;;53.08;31.95;;;;;;;;;;5071683;28;20036;-83
2021/06/27 05:14:47;;;;;;;52.92;31.75;;;;;;;;;;5062835;28;20017;-83
2021/06/27 05:17:12;;;;;;;53.33;32.33;;;;;;;;;;5072785;28;20016;-83
2021/06/27 05:19:37;;;;;;;51.13;31.73;;;;;;;;;;5073654;28;20021;-83
2021/06/27 05:22:02;;;;;;;52.45;33.10;;;;;;;;;;5073293;28;20108;-84
2021/06/27 05:24:28;;;;;;;41.00;27.58;;;;;;;;;;5060807;28;20024;-84
2021/06/27 05:26:53;;;;;;;39.65;26.67;;;;;;;;;;5073289;28;20032;-84
2021/06/27 05:29:18;;;;;;;45.92;27.35;;;;;;;;;;5073252;28;20016;-83
2021/06/27 05:31:43;;;;;;;49.50;31.63;;;;;;;;;;5073438;28;20016;-83
2021/06/27 05:34:09;;;;;;;43.65;29.40;;;;;;;;;;5073076;28;20112;-83
2021/06/27 05:36:37;;;;;;;44.95;28.60;;;;;;;;;;5070610;28;20035;-83
2021/06/27 05:39:06;;;;;;;43.60;27.33;;;;;;;;;;5053325;28;20070;-84
2021/06/27 05:41:31;;;;;;;40.22;27.35;;;;;;;;;;5057727;28;20395;-84
2021/06/27 05:43:57;;;;;;;45.25;28.27;;;;;;;;;;5065563;28;20043;-84
2021/06/27 05:46:22;;;;;;;44.42;27.92;;;;;;;;;;5071068;28;20113;-83
2021/06/27 05:48:47;;;;;;;43.88;28.23;;;;;;;;;;5064079;28;20424;-84
2021/06/27 05:51:12;;;;;;;45.17;28.52;;;;;;;;;;5047411;28;20574;-83
2021/06/27 05:53:38;;;;;;;41.40;27.23;;;;;;;;;;5054382;28;20023;-84
2021/06/27 05:56:10;;;;;;;43.53;27.60;;;;;;;;;;5059236;28;20384;-84
2021/06/27 05:58:39;;;;;;;47.42;30.42;;;;;;;;;;5058762;28;20024;-84
2021/06/27 06:01:05;;;;;;;48.95;29.17;;;;;;;;;;5062829;28;20035;-84
2021/06/27 06:03:30;;;;;;;39.72;26.27;;;;;;;;;;5055738;28;20111;-84
2021/06/27 06:05:56;;;;;;;48.03;28.23;;;;;;;;;;5054639;28;20075;-84
2021/06/27 06:08:21;;;;;;;46.78;30.02;;;;;;;;;;5065686;28;20408;-84
2021/06/27 06:10:46;;;;;;;47.70;26.73;;;;;;;;;;5059339;28;20023;-84
2021/06/27 06:13:11;;;;;;;46.67;27.55;;;;;;;;;;5071759;28;20017;-84
2021/06/27 06:15:36;;;;;;;49.10;29.63;;;;;;;;;;5067220;28;20039;-84
2021/06/27 06:18:01;;;;;;;40.30;27.13;;;;;;;;;;5055842;28;20456;-84
2021/06/27 06:20:27;;;;;;;49.67;29.73;;;;;;;;;;5055073;28;20074;-83
2021/06/27 06:22:52;;;;;;;38.60;23.55;;;;;;;;;;5061358;28;20111;-84
2021/06/27 06:25:17;;;;;;;41.75;26.65;;;;;;;;;;5056964;28;20150;-83
2021/06/27 06:27:42;;;;;;;41.17;26.33;;;;;;;;;;5052842;28;20020;-84
2021/06/27 06:30:07;;;;;;;43.45;25.45;;;;;;;;;;5060015;28;20024;-83
2021/06/27 06:32:33;;;;;;;39.33;26.25;;;;;;;;;;5067178;28;20029;-84
2021/06/27 06:34:58;;;;;;;41.45;26.00;;;;;;;;;;5056623;28;20028;-83
2021/06/27 06:37:23;;;;;;;44.10;27.73;;;;;;;;;;5053227;28;20427;-83
2021/06/27 06:39:48;;;;;;;42.50;25.65;;;;;;;;;;5059844;28;20020;-82
2021/06/27 06:42:13;;;;;;;43.13;26.35;;;;;;;;;;5058840;28;20469;-83
2021/06/27 06:44:39;;;;;;;42.22;27.83;;;;;;;;;;5055650;28;20029;-83
2021/06/27 06:47:04;;;;;;;39.72;24.40;;;;;;;;;;5060407;28;20028;-83
2021/06/27 06:49:29;;;;;;;45.45;27.63;;;;;;;;;;5058920;28;20055;-83
2021/06/27 06:51:54;;;;;;;47.25;26.95;;;;;;;;;;5062667;28;20023;-83
2021/06/27 06:54:19;;;;;;;42.60;26.70;;;;;;;;;;5055629;28;20020;-83
2021/06/27 06:56:45;;;;;;;47.80;27.88;;;;;;;;;;5070411;28;20107;-83
2021/06/27 06:59:10;;;;;;;45.28;27.55;;;;;;;;;;5070697;28;20036;-83
2021/06/27 07:01:35;;;;;;;51.13;26.33;;;;;;;;;;5055309;28;20402;-82
2021/06/27 07:04:00;;;;;;;47.28;27.33;;;;;;;;;;5058992;28;20031;-84
2021/06/27 07:06:25;;;;;;;41.97;26.38;;;;;;;;;;5066783;28;20028;-83
2021/06/27 07:08:50;;;;;;;48.92;29.90;;;;;;;;;;5063928;28;20468;-83
2021/06/27 07:11:16;;;;;;;46.42;27.90;;;;;;;;;;5053203;28;20013;-83
2021/06/27 07:13:41;;;;;;;42.63;25.58;;;;;;;;;;5056685;28;20052;-82
2021/06/27 07:16:06;;;;;;;42.75;24.35;;;;;;;;;;5059414;28;20025;-83
2021/06/27 07:18:31;;;;;;;38.67;23.90;;;;;;;;;;5050994;28;20025;-83
2021/06/27 07:20:56;;;;;;;41.83;24.48;;;;;;;;;;5066228;28;20020;-83
2021/06/27 07:23:22;;;;;;;41.58;24.05;;;;;;;;;;5055225;28;20431;-83
2021/06/27 07:25:47;;;;;;;37.33;23.50;;;;;;;;;;5055287;28;20063;-83
2021/06/27 07:28:12;;;;;;;43.30;23.52;;;;;;;;;;5052688;28;20047;-83
2021/06/27 07:30:37;;;;;;;33.45;21.92;;;;;;;;;;5058529;28;20082;-83
2021/06/27 07:33:03;;;;;;;41.20;24.75;;;;;;;;;;5050583;28;20009;-83
2021/06/27 07:35:28;;;;;;;40.78;23.25;;;;;;;;;;5053802;28;20025;-83
2021/06/27 07:37:53;;;;;;;37.63;22.92;;;;;;;;;;5052294;28;20021;-83
2021/06/27 07:40:19;;;;;;;39.92;23.33;;;;;;;;;;5062550;28;20051;-83
2021/06/27 07:42:45;;;;;;;38.00;23.23;;;;;;;;;;5059804;28;20068;-82
2021/06/27 07:45:10;;;;;;;43.00;23.02;;;;;;;;;;5057980;28;20055;-83
2021/06/27 07:47:35;;;;;;;35.42;21.10;;;;;;;;;;5057150;28;20021;-83
2021/06/27 07:50:01;;;;;;;32.53;18.92;;;;;;;;;;5059855;28;20066;-83
2021/06/27 07:52:26;;;;;;;29.77;17.27;;;;;;;;;;5056851;28;20017;-83
2021/06/27 07:54:51;;;;;;;27.05;17.23;;;;;;;;;;5071921;28;20028;-83
2021/06/27 07:57:16;;;;;;;27.95;17.42;;;;;;;;;;5072163;28;20488;-83
2021/06/27 07:59:41;;;;;;;32.95;19.00;;;;;;;;;;5069810;28;20018;-83
2021/06/27 08:02:07;;;;;;;26.48;17.58;;;;;;;;;;5070215;28;20103;-83
2021/06/27 08:04:32;;;;;;;28.40;18.50;;;;;;;;;;5056816;28;20028;-83
2021/06/27 08:06:57;;;;;;;35.85;21.60;;;;;;;;;;5061507;28;20029;-83
2021/06/27 08:09:22;;;;;;;40.83;22.30;;;;;;;;;;5054276;28;20025;-84
2021/06/27 08:11:48;;;;;;;33.25;20.75;;;;;;;;;;5056278;28;20420;-84
2021/06/27 08:14:13;;;;;;;33.42;18.95;;;;;;;;;;5056515;28;20047;-83
2021/06/27 08:16:38;;;;;;;32.78;20.58;;;;;;;;;;5074473;28;20028;-83
2021/06/27 08:19:04;;;;;;;33.53;20.20;;;;;;;;;;5062854;28;20044;-83
2021/06/27 08:21:29;;;;;;;33.70;20.10;;;;;;;;;;5069430;28;20033;-83
2021/06/27 08:23:55;;;;;;;27.30;16.55;;;;;;;;;;5068198;28;20074;-83
2021/06/27 08:26:23;;;;;;;24.17;13.95;;;;;;;;;;5074041;28;20070;-82
2021/06/27 08:28:48;;;;;;;23.42;14.63;;;;;;;;;;5061103;28;20420;-83
2021/06/27 08:31:13;;;;;;;26.30;14.63;;;;;;;;;;5058551;28;20043;-83
2021/06/27 08:33:38;;;;;;;21.95;13.55;;;;;;;;;;5059786;28;20376;-83
2021/06/27 08:36:04;;;;;;;24.33;15.48;;;;;;;;;;5061265;28;20464;-84
2021/06/27 08:38:29;;;;;;;27.52;16.50;;;;;;;;;;5052760;28;20104;-82
2021/06/27 08:40:56;;;;;;;25.20;15.48;;;;;;;;;;5054722;28;20017;-83
2021/06/27 08:43:27;;;;;;;24.30;14.93;;;;;;;;;;5063454;28;20102;-84
2021/06/27 08:45:53;;;;;;;25.73;14.65;;;;;;;;;;5062858;28;20029;-83
2021/06/27 08:48:22;;;;;;;21.85;13.63;;;;;;;;;;5055791;28;20048;-83
2021/06/27 08:50:51;;;;;;;24.30;14.35;;;;;;;;;;5050706;28;20482;-84
2021/06/27 08:53:17;;;;;;;24.88;13.60;;;;;;;;;;5068853;28;20016;-84
2021/06/27 08:55:42;;;;;;;20.75;14.38;;;;;;;;;;5053451;28;20031;-84
2021/06/27 08:58:08;;;;;;;24.75;13.95;;;;;;;;;;5060409;28;20052;-83
2021/06/27 09:00:34;;;;;;;20.70;13.82;;;;;;;;;;5058558;28;20071;-84
2021/06/27 09:02:59;;;;;;;25.38;13.38;;;;;;;;;;5059452;28;20415;-84
2021/06/27 09:05:24;;;;;;;20.02;12.77;;;;;;;;;;5056754;28;20025;-84
2021/06/27 09:07:49;;;;;;;25.50;13.32;;;;;;;;;;5064478;28;20031;-84
2021/06/27 09:10:15;;;;;;;21.60;13.10;;;;;;;;;;5053275;28;20022;-84
2021/06/27 09:12:47;;;;;;;20.52;12.85;;;;;;;;;;5065943;28;20024;-84
2021/06/27 09:15:13;;;;;;;23.17;12.65;;;;;;;;;;5072919;28;20016;-84
2021/06/27 09:17:42;;;;;;;22.10;12.15;;;;;;;;;;5071974;28;20066;-84
2021/06/27 09:20:09;;;;;;;21.95;12.65;;;;;;;;;;5062728;28;20024;-84
2021/06/27 09:22:34;;;;;;;20.13;12.25;;;;;;;;;;5063427;28;20031;-84
2021/06/27 09:25:15;;;;;;;21.52;12.77;;;;;;;;;;5072541;28;20016;-84
2021/06/27 09:27:40;;;;;;;19.67;12.15;;;;;;;;;;5073827;28;20506;-84
2021/06/27 09:30:13;;;;;;;24.55;14.55;;;;;;;;;;5072923;28;20048;-84
2021/06/27 09:32:49;;;;;;;25.13;14.40;;;;;;;;;;5058168;28;20108;-83
2021/06/27 09:35:14;;;;;;;22.65;13.80;;;;;;;;;;5061536;28;20083;-84
2021/06/27 09:37:41;;;;;;;18.33;12.32;;;;;;;;;;5067688;28;20543;-84
2021/06/27 09:40:06;;;;;;;23.23;12.88;;;;;;;;;;5056108;28;20031;-84
2021/06/27 09:42:32;;;;;;;19.23;12.95;;;;;;;;;;5053262;28;20112;-84
2021/06/27 09:45:05;;;;;;;22.25;12.38;;;;;;;;;;5059901;28;20056;-84
2021/06/27 09:47:30;;;;;;;20.75;13.35;;;;;;;;;;5055451;28;20060;-84
2021/06/27 09:49:55;;;;;;;22.30;12.45;;;;;;;;;;5059069;28;20048;-84
2021/06/27 09:52:37;;;;;;;16.25;11.48;;;;;;;;;;5061896;28;20075;-84
2021/06/27 09:55:07;;;;;;;17.60;11.37;;;;;;;;;;5070962;28;20027;-84
2021/06/27 09:57:32;;;;;;;15.93;10.15;;;;;;;;;;5065116;28;20394;-84
2021/06/27 09:59:57;;;;;;;24.67;10.35;;;;;;;;;;5073504;28;20092;-84
2021/06/27 10:02:22;;;;;;;19.70;11.07;;;;;;;;;;5062532;28;20029;-84
2021/06/27 10:04:47;;;;;;;20.27;11.70;;;;;;;;;;5064602;28;20033;-84
2021/06/27 10:07:12;;;;;;;16.85;11.23;;;;;;;;;;5060543;28;20025;-85
2021/06/27 10:09:39;;;;;;;14.95;10.80;;;;;;;;;;5061264;28;20318;-85
2021/06/27 10:12:09;;;;;;;17.30;11.23;;;;;;;;;;5067332;28;20054;-84
2021/06/27 10:14:48;;;;;;;15.02;9.80;;;;;;;;;;5064930;28;20021;-84
2021/06/27 10:17:14;;;;;;;18.77;9.98;;;;;;;;;;5058241;28;20473;-84
2021/06/27 10:19:40;;;;;;;14.82;9.60;;;;;;;;;;5065105;28;20028;-84
2021/06/27 10:22:05;;;;;;;16.15;10.50;;;;;;;;;;5068097;28;20027;-85
2021/06/27 10:24:30;;;;;;;13.98;10.00;;;;;;;;;;5067533;28;20387;-85
2021/06/27 10:26:56;;;;;;;17.52;9.85;;;;;;;;;;5065770;28;20035;-85
2021/06/27 10:29:24;;;;;;;19.10;10.07;;;;;;;;;;5068955;28;20013;-84
2021/06/27 10:31:51;;;;;;;17.13;9.80;;;;;;;;;;5054736;28;20051;-84
2021/06/27 10:34:17;;;;;;;20.00;11.05;;;;;;;;;;5055539;28;20514;-85
2021/06/27 10:36:43;;;;;;;17.45;10.60;;;;;;;;;;5050682;28;20025;-84
2021/06/27 10:39:10;;;;;;;15.73;9.75;;;;;;;;;;5052036;28;20029;-84
2021/06/27 10:41:59;;;;;;;17.70;10.57;;;;;;;;;;5058433;28;20024;-84
2021/06/27 10:44:28;;;;;;;15.05;9.98;;;;;;;;;;5071251;28;20445;-84
2021/06/27 10:46:58;;;;;;;22.30;10.75;;;;;;;;;;5060823;28;20032;-84
2021/06/27 10:49:33;;;;;;;19.60;9.65;;;;;;;;;;5052722;28;20438;-84
2021/06/27 10:52:00;;;;;;;17.98;10.00;;;;;;;;;;5060762;28;20066;-85
2021/06/27 10:54:26;;;;;;;16.80;9.80;;;;;;;;;;5071845;28;20021;-84
2021/06/27 10:57:04;;;;;;;15.45;9.73;;;;;;;;;;5060089;28;20431;-84
2021/06/27 10:59:38;;;;;;;14.82;8.80;;;;;;;;;;5064998;28;20028;-84
2021/06/27 11:02:10;;;;;;;11.20;8.35;;;;;;;;;;5049375;28;20480;-85
2021/06/27 11:04:35;;;;;;;14.18;9.05;;;;;;;;;;5061382;28;20086;-84
2021/06/27 11:07:00;;;;;;;14.07;9.57;;;;;;;;;;5057851;28;20468;-84
2021/06/27 11:09:26;;;;;;;16.23;8.70;;;;;;;;;;5071663;28;20017;-84
2021/06/27 11:11:53;;;;;;;16.10;9.65;;;;;;;;;;5064929;28;20361;-84
2021/06/27 11:14:20;;;;;;;15.82;10.10;;;;;;;;;;5072827;28;20020;-85
2021/06/27 11:16:59;;;;;;;21.95;11.00;;;;;;;;;;5075631;28;20060;-85
2021/06/27 11:19:25;;;;;;;22.15;9.13;;;;;;;;;;5070129;28;20032;-84
2021/06/27 11:22:10;;;;;;;14.70;9.02;;;;;;;;;;5066330;28;20407;-84
2021/06/27 11:24:35;;;;;;;13.48;10.13;;;;;;;;;;5083874;28;20050;-85
2021/06/27 11:27:01;;;;;;;15.77;8.70;;;;;;;;;;5060616;28;20059;-85
2021/06/27 11:29:29;;;;;;;15.48;9.18;;;;;;;;;;5061643;28;20472;-85
2021/06/27 11:31:55;;;;;;;19.92;9.18;;;;;;;;;;5078044;28;20012;-84
2021/06/27 11:34:24;;;;;;;14.13;8.50;;;;;;;;;;5068114;28;20020;-85
2021/06/27 11:36:51;;;;;;;16.27;8.48;;;;;;;;;;5073979;28;20055;-85
2021/06/27 11:39:36;;;;;;;16.10;8.48;;;;;;;;;;5068163;28;20044;-84
2021/06/27 11:42:01;;;;;;;16.52;8.15;;;;;;;;;;5077666;28;20021;-84
2021/06/27 11:44:26;;;;;;;13.52;8.25;;;;;;;;;;5065470;28;20341;-84
2021/06/27 11:46:52;;;;;;;17.98;7.85;;;;;;;;;;5072945;28;20017;-84
2021/06/27 11:49:26;;;;;;;13.57;7.78;;;;;;;;;;5058876;28;20057;-85
2021/06/27 11:51:52;;;;;;;12.82;7.97;;;;;;;;;;5085641;28;20368;-84
2021/06/27 11:54:18;;;;;;;12.65;8.30;;;;;;;;;;5079652;28;20020;-84
2021/06/27 11:57:02;;;;;;;16.25;9.02;;;;;;;;;;5077730;28;20024;-84
2021/06/27 11:59:30;;;;;;;16.00;8.75;;;;;;;;;;5058520;28;20029;-84
2021/06/27 12:02:05;;;;;;;14.45;8.68;;;;;;;;;;5067458;28;20024;-85
2021/06/27 12:04:43;;;;;;;14.07;8.35;;;;;;;;;;5066372;28;20032;-86
2021/06/27 12:07:27;;;;;;;15.95;8.73;;;;;;;;;;5060856;28;20025;-85
2021/06/27 12:09:54;;;;;;;10.55;7.65;;;;;;;;;;5067780;28;20476;-85
2021/06/27 12:12:39;;;;;;;14.27;9.27;;;;;;;;;;5058273;28;20721;-86
2021/06/27 12:15:06;;;;;;;14.68;8.60;;;;;;;;;;5059468;28;20028;-85
2021/06/27 12:17:31;;;;;;;15.77;8.23;;;;;;;;;;5059402;28;20024;-86
2021/06/27 12:19:57;;;;;;;11.82;8.32;;;;;;;;;;5056498;28;20021;-87
2021/06/27 12:22:22;;;;;;;13.23;9.25;;;;;;;;;;5057848;28;20056;-88
2021/06/27 12:24:47;;;;;;;13.20;8.57;;;;;;;;;;5061605;28;20028;-85
2021/06/27 12:27:13;;;;;;;14.00;8.05;;;;;;;;;;5068219;28;20031;-88
2021/06/27 12:29:55;;;;;;;13.52;8.30;;;;;;;;;;5061330;28;20121;-85
2021/06/27 12:32:20;;;;;;;14.65;7.47;;;;;;;;;;5085480;28;20033;-86
2021/06/27 12:34:46;;;;;;;12.20;7.68;;;;;;;;;;5057235;28;20512;-85
2021/06/27 12:37:12;;;;;;;14.45;8.45;;;;;;;;;;5067147;28;20033;-85
2021/06/27 12:39:37;;;;;;;14.00;9.05;;;;;;;;;;5073754;28;20016;-84
2021/06/27 12:42:06;;;;;;;15.43;9.45;;;;;;;;;;5054663;28;20075;-84
2021/06/27 12:44:32;;;;;;;14.27;8.80;;;;;;;;;;5064327;28;20075;-84
2021/06/27 12:46:57;;;;;;;13.10;8.35;;;;;;;;;;5057607;28;20043;-84
2021/06/27 12:49:23;;;;;;;12.10;7.30;;;;;;;;;;5056928;28;20033;-84
2021/06/27 12:52:01;;;;;;;14.95;8.63;;;;;;;;;;5052723;28;20021;-85
2021/06/27 12:54:28;;;;;;;12.15;8.25;;;;;;;;;;5053041;28;20048;-85
2021/06/27 12:57:03;;;;;;;13.95;7.63;;;;;;;;;;5089934;28;20035;-85
2021/06/27 12:59:34;;;;;;;11.70;8.48;;;;;;;;;;5067116;28;20032;-84
2021/06/27 13:02:02;;;;;;;11.73;8.50;;;;;;;;;;5063231;28;20021;-84
2021/06/27 13:04:29;;;;;;;11.77;7.88;;;;;;;;;;5065744;28;20086;-85
2021/06/27 13:06:55;;;;;;;17.27;9.43;;;;;;;;;;5055134;28;20040;-84
2021/06/27 13:09:20;;;;;;;13.05;8.93;;;;;;;;;;5052841;28;20013;-83
2021/06/27 13:12:12;;;;;;;11.02;8.15;;;;;;;;;;5052904;28;20495;-84
2021/06/27 13:14:39;;;;;;;12.77;7.53;;;;;;;;;;5074886;28;20029;-84
2021/06/27 13:17:05;;;;;;;10.07;6.00;;;;;;;;;;5052329;28;20633;-84
2021/06/27 13:19:30;;;;;;;5.68;3.50;;;;;;;;;;5052109;28;20525;-84
2021/06/27 13:22:12;;;;;;;4.70;3.58;;;;;;;;;;5054109;28;20025;-84
2021/06/27 13:24:56;;;;;;;10.77;3.47;;;;;;;;;;5076238;28;20060;-85
2021/06/27 13:27:21;;;;;;;7.55;3.00;;;;;;;;;;5052690;28;20055;-86
2021/06/27 13:30:03;;;;;;;9.38;3.28;;;;;;;;;;5051944;28;20025;-86
2021/06/27 13:32:29;;;;;;;15.20;2.95;;;;;;;;;;5051477;28;20437;-90
2021/06/27 13:34:54;;;;;;;21.45;3.17;;;;;;;;;;5052492;28;20049;-90
2021/06/27 13:37:19;;;;;;;13.57;3.30;;;;;;;;;;5051508;28;20039;-89
2021/06/27 13:39:45;;;;;;;11.32;3.45;;;;;;;;;;5051838;28;20427;-89
2021/06/27 13:42:10;;;;;;;9.98;3.88;;;;;;;;;;5053503;28;20025;-89
2021/06/27 13:44:35;;;;;;;9.50;5.30;;;;;;;;;;5052087;28;20043;-88
2021/06/27 13:47:00;;;;;;;16.05;4.95;;;;;;;;;;5053727;28;20021;-89
2021/06/27 13:49:25;;;;;;;13.80;4.97;;;;;;;;;;5052360;28;20017;-88
2021/06/27 13:51:51;;;;;;;9.68;5.40;;;;;;;;;;5053355;28;20468;-90
2021/06/27 13:54:16;;;;;;;10.30;5.35;;;;;;;;;;5052114;28;20021;-89
2021/06/27 13:56:43;;;;;;;11.32;5.63;;;;;;;;;;5050359;28;20028;-89
2021/06/27 13:59:08;;;;;;;12.18;4.65;;;;;;;;;;5051288;28;20158;-89
2021/06/27 14:01:37;;;;;;;10.75;4.88;;;;;;;;;;5051979;28;20107;-89
2021/06/27 14:04:05;;;;;;;8.38;5.15;;;;;;;;;;5058262;28;20097;-88
2021/06/27 14:06:31;;;;;;;12.57;5.10;;;;;;;;;;5067526;28;20020;-89
2021/06/27 14:08:56;;;;;;;7.20;5.18;;;;;;;;;;5065176;28;20012;-90
2021/06/27 14:11:22;;;;;;;9.10;5.85;;;;;;;;;;5072463;28;20034;-89
2021/06/27 14:13:47;;;;;;;10.23;6.15;;;;;;;;;;5064447;28;20037;-90
2021/06/27 14:16:13;;;;;;;9.20;6.55;;;;;;;;;;5058823;28;20027;-89
2021/06/27 14:18:38;;;;;;;12.50;6.90;;;;;;;;;;5059106;28;20059;-89